createdAt,value
2018-04-15T00:00:27.071Z,9.74
2018-04-15T00:01:27.113Z,9.69
2018-04-15T00:02:27.043Z,9.73
2018-04-15T00:03:27.069Z,9.77
2018-04-15T00:04:27.025Z,9.65
2018-04-15T00:05:26.969Z,9.68
2018-04-15T00:06:27.044Z,9.76
2018-04-15T00:07:26.941Z,9.69
2018-04-15T00:08:26.916Z,9.66
2018-04-15T00:09:26.920Z,9.74
2018-04-15T00:10:26.892Z,9.77
2018-04-15T00:11:26.879Z,9.72
2018-04-15T00:12:26.865Z,9.69
2018-04-15T00:13:26.850Z,9.77
2018-04-15T00:14:26.797Z,9.72
2018-04-15T00:15:26.799Z,9.72
2018-04-15T00:16:26.758Z,9.73
2018-04-15T00:17:26.751Z,9.84
2018-04-15T00:18:26.713Z,9.74
2018-04-15T00:19:26.750Z,9.76
2018-04-15T00:20:26.736Z,9.77
2018-04-15T00:21:26.660Z,9.72
2018-04-15T00:22:26.659Z,9.79
2018-04-15T00:23:26.670Z,9.84
2018-04-15T00:24:26.637Z,9.83
2018-04-15T00:25:26.590Z,9.82
2018-04-15T00:26:26.583Z,9.86
2018-04-15T00:27:26.584Z,9.91
2018-04-15T00:28:26.573Z,9.87
2018-04-15T00:29:26.547Z,9.83
2018-04-15T00:30:26.497Z,9.84
2018-04-15T00:31:26.494Z,9.84
2018-04-15T00:32:26.505Z,9.79
2018-04-15T00:33:26.460Z,9.82
2018-04-15T00:34:26.424Z,9.79
2018-04-15T00:35:26.404Z,9.73
2018-04-15T00:36:26.365Z,9.73
2018-04-15T00:37:26.349Z,9.82
2018-04-15T00:38:26.348Z,9.80
2018-04-15T00:39:26.292Z,9.77
2018-04-15T00:40:26.285Z,9.79
2018-04-15T00:41:26.280Z,9.83
2018-04-15T00:42:26.261Z,9.86
2018-04-15T00:43:26.217Z,9.83
2018-04-15T00:44:26.216Z,9.86
2018-04-15T00:45:26.207Z,9.84
2018-04-15T00:46:26.180Z,9.82
2018-04-15T00:47:26.123Z,9.95
2018-04-15T00:48:26.230Z,9.92
2018-04-15T00:49:26.122Z,9.98
2018-04-15T00:50:26.070Z,9.91
2018-04-15T00:51:26.090Z,9.98
2018-04-15T00:52:26.111Z,9.92
2018-04-15T00:53:26.040Z,9.87
2018-04-15T00:54:25.979Z,9.91
2018-04-15T00:55:25.990Z,9.89
2018-04-15T00:56:25.951Z,9.80
2018-04-15T00:57:25.956Z,9.89
2018-04-15T00:58:25.945Z,9.89
2018-04-15T00:59:25.926Z,9.83
2018-04-15T01:00:25.922Z,9.86
2018-04-15T01:01:25.848Z,9.92
2018-04-15T01:02:25.881Z,9.91
2018-04-15T01:03:25.833Z,9.82
2018-04-15T01:04:25.808Z,9.86
2018-04-15T01:05:25.855Z,9.80
2018-04-15T01:06:25.757Z,9.84
2018-04-15T01:07:25.732Z,9.92
2018-04-15T01:08:25.753Z,9.79
2018-04-15T01:09:25.724Z,9.83
2018-04-15T01:10:25.661Z,9.91
2018-04-15T01:11:25.691Z,9.86
2018-04-15T01:12:25.663Z,9.82
2018-04-15T01:13:25.620Z,9.82
2018-04-15T01:14:25.683Z,9.89
2018-04-15T01:15:25.590Z,9.87
2018-04-15T01:16:25.578Z,9.89
2018-04-15T01:17:25.542Z,9.87
2018-04-15T01:18:25.576Z,9.86
2018-04-15T01:19:25.479Z,9.84
2018-04-15T01:20:25.471Z,9.86
2018-04-15T01:21:25.451Z,9.89
2018-04-15T01:22:25.457Z,9.87
2018-04-15T01:23:25.424Z,9.80
2018-04-15T01:24:25.432Z,9.83
2018-04-15T01:25:25.422Z,9.80
2018-04-15T01:26:25.364Z,9.77
2018-04-15T01:27:25.383Z,9.73
2018-04-15T01:28:25.345Z,9.62
2018-04-15T01:29:25.281Z,9.66
2018-04-15T01:30:25.263Z,9.77
2018-04-15T01:31:25.293Z,9.68
2018-04-15T01:32:25.292Z,9.74
2018-04-15T01:33:25.225Z,9.65
2018-04-15T01:34:25.191Z,9.66
2018-04-15T01:35:25.166Z,9.76
2018-04-15T01:36:25.135Z,9.61
2018-04-15T01:37:25.182Z,9.65
2018-04-15T01:38:25.133Z,9.65
2018-04-15T01:39:25.070Z,9.65
2018-04-15T01:40:25.070Z,9.64
2018-04-15T01:41:25.131Z,9.56
2018-04-15T01:42:25.039Z,9.56
2018-04-15T01:43:25.043Z,9.64
2018-04-15T01:44:24.993Z,9.61
2018-04-15T01:45:24.971Z,9.59
2018-04-15T01:46:25.036Z,9.64
2018-04-15T01:47:24.977Z,9.62
2018-04-15T01:48:24.942Z,9.65
2018-04-15T01:49:24.898Z,9.59
2018-04-15T01:50:24.896Z,9.48
2018-04-15T01:51:24.841Z,9.47
2018-04-15T01:52:24.928Z,9.55
2018-04-15T01:53:24.926Z,9.51
2018-04-15T01:54:24.875Z,9.50
2018-04-15T01:55:24.790Z,9.46
2018-04-15T01:56:24.768Z,9.46
2018-04-15T01:57:24.811Z,9.48
2018-04-15T01:58:24.731Z,9.48
2018-04-15T01:59:24.757Z,9.43
2018-04-15T02:00:24.652Z,9.46
2018-04-15T02:01:24.666Z,9.40
2018-04-15T02:02:24.641Z,9.46
2018-04-15T02:03:24.683Z,9.44
2018-04-15T02:04:24.603Z,9.48
2018-04-15T02:05:24.553Z,9.48
2018-04-15T02:06:24.529Z,9.51
2018-04-15T02:07:24.523Z,9.51
2018-04-15T02:08:24.530Z,9.50
2018-04-15T02:09:24.519Z,9.51
2018-04-15T02:10:24.474Z,9.51
2018-04-15T02:11:24.441Z,9.55
2018-04-15T02:12:24.475Z,9.55
2018-04-15T02:13:24.440Z,9.58
2018-04-15T02:14:24.383Z,9.64
2018-04-15T02:15:24.362Z,9.64
2018-04-15T02:16:24.358Z,9.59
2018-04-15T02:17:24.360Z,9.62
2018-04-15T02:18:24.345Z,9.61
2018-04-15T02:19:24.281Z,9.64
2018-04-15T02:20:24.280Z,9.66
2018-04-15T02:21:24.254Z,9.62
2018-04-15T02:22:24.281Z,9.62
2018-04-15T02:23:24.228Z,9.65
2018-04-15T02:24:24.202Z,9.61
2018-04-15T02:25:24.193Z,9.66
2018-04-15T02:26:24.131Z,9.59
2018-04-15T02:27:24.129Z,9.64
2018-04-15T02:28:24.138Z,9.61
2018-04-15T02:29:24.117Z,9.56
2018-04-15T02:30:24.075Z,9.55
2018-04-15T02:31:24.039Z,9.50
2018-04-15T02:32:23.996Z,9.50
2018-04-15T02:33:24.083Z,9.54
2018-04-15T02:34:24.005Z,9.51
2018-04-15T02:35:23.972Z,9.47
2018-04-15T02:36:23.948Z,9.47
2018-04-15T02:37:23.953Z,9.46
2018-04-15T02:38:23.936Z,9.51
2018-04-15T02:39:23.921Z,9.41
2018-04-15T02:40:23.856Z,9.51
2018-04-15T02:41:23.857Z,9.46
2018-04-15T02:42:23.892Z,9.48
2018-04-15T02:43:23.797Z,9.48
2018-04-15T02:44:23.778Z,9.46
2018-04-15T02:45:23.739Z,9.43
2018-04-15T02:46:23.740Z,9.47
2018-04-15T02:47:23.828Z,9.48
2018-04-15T02:48:23.687Z,9.43
2018-04-15T02:49:23.710Z,9.48
2018-04-15T02:50:23.660Z,9.44
2018-04-15T02:51:23.677Z,9.47
2018-04-15T02:52:23.667Z,9.36
2018-04-15T02:53:23.615Z,9.39
2018-04-15T02:54:23.590Z,9.37
2018-04-15T02:55:23.600Z,9.29
2018-04-15T02:56:23.634Z,9.28
2018-04-15T02:57:23.549Z,9.29
2018-04-15T02:58:23.509Z,9.31
2018-04-15T02:59:23.501Z,9.28
2018-04-15T03:00:23.475Z,9.19
2018-04-15T03:01:23.437Z,9.16
2018-04-15T03:02:23.413Z,9.14
2018-04-15T03:03:23.382Z,9.06
2018-04-15T03:04:23.389Z,9.08
2018-04-15T03:05:23.334Z,9.08
2018-04-15T03:06:23.359Z,9.04
2018-04-15T03:07:23.295Z,9.06
2018-04-15T03:08:23.358Z,9.11
2018-04-15T03:09:23.254Z,9.06
2018-04-15T03:10:23.321Z,9.04
2018-04-15T03:11:23.273Z,8.95
2018-04-15T03:12:23.229Z,9.04
2018-04-15T03:13:23.208Z,8.91
2018-04-15T03:14:23.175Z,8.92
2018-04-15T03:15:23.138Z,8.95
2018-04-15T03:16:23.128Z,8.92
2018-04-15T03:17:23.122Z,8.94
2018-04-15T03:18:23.082Z,9.06
2018-04-15T03:19:23.063Z,8.95
2018-04-15T03:20:23.048Z,8.97
2018-04-15T03:21:23.126Z,8.94
2018-04-15T03:22:23.008Z,8.89
2018-04-15T03:23:22.998Z,8.99
2018-04-15T03:24:22.979Z,8.92
2018-04-15T03:25:22.956Z,8.87
2018-04-15T03:26:22.958Z,8.87
2018-04-15T03:27:22.913Z,8.81
2018-04-15T03:28:22.882Z,8.70
2018-04-15T03:29:22.862Z,8.76
2018-04-15T03:30:22.864Z,8.71
2018-04-15T03:31:22.822Z,8.71
2018-04-15T03:32:22.817Z,8.64
2018-04-15T03:33:22.813Z,8.63
2018-04-15T03:34:22.772Z,8.61
2018-04-15T03:35:22.737Z,8.61
2018-04-15T03:36:22.726Z,8.63
2018-04-15T03:37:22.775Z,8.63
2018-04-15T03:38:22.674Z,8.66
2018-04-15T03:39:22.664Z,8.69
2018-04-15T03:40:22.651Z,8.71
2018-04-15T03:41:22.589Z,8.58
2018-04-15T03:42:22.604Z,8.61
2018-04-15T03:43:22.559Z,8.64
2018-04-15T03:44:22.582Z,8.58
2018-04-15T03:45:22.539Z,8.53
2018-04-15T03:46:22.522Z,8.56
2018-04-15T03:47:22.499Z,8.52
2018-04-15T03:48:22.496Z,8.55
2018-04-15T03:49:22.487Z,8.61
2018-04-15T03:50:22.451Z,8.48
2018-04-15T03:51:22.427Z,8.58
2018-04-15T03:52:22.404Z,8.53
2018-04-15T03:53:22.349Z,8.52
2018-04-15T03:54:22.354Z,8.46
2018-04-15T03:55:22.323Z,8.44
2018-04-15T03:56:22.326Z,8.37
2018-04-15T03:57:22.288Z,8.37
2018-04-15T03:58:22.277Z,8.30
2018-04-15T03:59:22.236Z,8.41
2018-04-15T04:00:22.243Z,8.41
2018-04-15T04:01:22.215Z,8.34
2018-04-15T04:02:22.172Z,8.33
2018-04-15T04:03:22.183Z,8.24
2018-04-15T04:04:22.146Z,8.34
2018-04-15T04:05:22.123Z,8.23
2018-04-15T04:06:22.081Z,8.20
2018-04-15T04:07:22.118Z,8.23
2018-04-15T04:08:22.039Z,8.27
2018-04-15T04:09:22.045Z,8.15
2018-04-15T04:10:22.068Z,8.16
2018-04-15T04:11:22.039Z,8.18
2018-04-15T04:12:21.982Z,8.15
2018-04-15T04:13:21.956Z,8.20
2018-04-15T04:14:21.997Z,8.20
2018-04-15T04:15:21.890Z,8.20
2018-04-15T04:16:21.869Z,8.18
2018-04-15T04:17:21.880Z,8.15
2018-04-15T04:18:21.832Z,8.15
2018-04-15T04:19:21.859Z,8.18
2018-04-15T04:20:21.824Z,8.15
2018-04-15T04:21:21.760Z,8.18
2018-04-15T04:22:21.826Z,8.16
2018-04-15T04:23:21.738Z,8.23
2018-04-15T04:24:21.754Z,8.19
2018-04-15T04:25:21.734Z,8.18
2018-04-15T04:26:21.687Z,8.19
2018-04-15T04:27:21.716Z,8.16
2018-04-15T04:28:21.660Z,8.26
2018-04-15T04:29:21.592Z,8.12
2018-04-15T04:30:21.593Z,8.24
2018-04-15T04:31:21.586Z,8.30
2018-04-15T04:32:21.532Z,8.27
2018-04-15T04:33:21.528Z,8.31
2018-04-15T04:34:21.530Z,8.24
2018-04-15T04:35:21.526Z,8.31
2018-04-15T04:36:21.477Z,8.31
2018-04-15T04:37:21.458Z,8.34
2018-04-15T04:38:21.463Z,8.30
2018-04-15T04:39:21.470Z,8.33
2018-04-15T04:40:21.372Z,8.33
2018-04-15T04:41:21.459Z,8.38
2018-04-15T04:42:21.373Z,8.38
2018-04-15T04:43:21.331Z,8.38
2018-04-15T04:44:21.300Z,8.41
2018-04-15T04:45:21.286Z,8.38
2018-04-15T04:46:21.249Z,8.45
2018-04-15T04:47:21.256Z,8.38
2018-04-15T04:48:21.223Z,8.41
2018-04-15T04:49:21.233Z,8.37
2018-04-15T04:50:21.219Z,8.42
2018-04-15T04:51:21.152Z,8.48
2018-04-15T04:52:21.188Z,8.53
2018-04-15T04:53:21.142Z,8.51
2018-04-15T04:54:21.163Z,8.60
2018-04-15T04:55:21.055Z,8.58
2018-04-15T04:56:21.105Z,8.63
2018-04-15T04:57:21.083Z,8.67
2018-04-15T04:58:21.009Z,8.64
2018-04-15T04:59:22.670Z,8.66
2018-04-15T05:00:21.000Z,8.76
2018-04-15T05:01:20.999Z,8.73
2018-04-15T05:02:20.958Z,8.79
2018-04-15T05:03:20.932Z,8.82
2018-04-15T05:04:20.900Z,8.82
2018-04-15T05:05:20.893Z,8.94
2018-04-15T05:06:20.886Z,8.89
2018-04-15T05:07:20.835Z,8.94
2018-04-15T05:08:20.884Z,9.03
2018-04-15T05:09:20.777Z,9.03
2018-04-15T05:10:20.757Z,9.06
2018-04-15T05:11:20.858Z,9.14
2018-04-15T05:12:20.791Z,9.08
2018-04-15T05:13:20.733Z,9.23
2018-04-15T05:14:20.716Z,9.31
2018-04-15T05:15:20.683Z,9.36
2018-04-15T05:16:20.656Z,9.31
2018-04-15T05:17:20.670Z,9.29
2018-04-15T05:18:20.694Z,9.39
2018-04-15T05:19:20.769Z,9.44
2018-04-15T05:20:20.578Z,9.37
2018-04-15T05:21:20.576Z,9.47
2018-04-15T05:22:20.527Z,9.51
2018-04-15T05:23:20.538Z,9.56
2018-04-15T05:24:20.548Z,9.58
2018-04-15T05:25:20.468Z,9.56
2018-04-15T05:26:20.492Z,9.62
2018-04-15T05:27:20.462Z,9.66
2018-04-15T05:28:20.582Z,9.77
2018-04-15T05:29:20.557Z,9.79
2018-04-15T05:30:21.874Z,9.77
2018-04-15T05:31:20.320Z,9.86
2018-04-15T05:32:20.383Z,9.94
2018-04-15T05:33:20.359Z,10.04
2018-04-15T05:34:20.287Z,10.04
2018-04-15T05:35:23.160Z,10.05
2018-04-15T05:36:20.285Z,10.16
2018-04-15T05:37:20.206Z,10.33
2018-04-15T05:38:20.208Z,10.40
2018-04-15T05:39:20.202Z,10.51
2018-04-15T05:40:20.647Z,10.51
2018-04-15T05:41:20.122Z,10.69
2018-04-15T05:42:20.145Z,10.68
2018-04-15T05:43:20.671Z,10.86
2018-04-15T05:44:20.125Z,10.96
2018-04-15T05:45:20.065Z,10.92
2018-04-15T05:46:20.055Z,11.08
2018-04-15T05:47:20.013Z,11.15
2018-04-15T05:48:20.005Z,11.14
2018-04-15T05:49:20.018Z,11.30
2018-04-15T05:50:19.945Z,11.30
2018-04-15T05:51:19.928Z,11.40
2018-04-15T05:52:20.675Z,11.47
2018-04-15T05:53:19.905Z,11.48
2018-04-15T05:54:19.913Z,11.51
2018-04-15T05:55:19.848Z,11.52
2018-04-15T05:56:19.832Z,11.52
2018-04-15T05:57:19.830Z,11.65
2018-04-15T05:58:19.788Z,11.62
2018-04-15T05:59:19.776Z,11.66
2018-04-15T06:00:19.770Z,11.63
2018-04-15T06:01:19.788Z,11.68
2018-04-15T06:02:19.742Z,11.63
2018-04-15T06:03:19.735Z,11.65
2018-04-15T06:04:19.693Z,11.65
2018-04-15T06:05:19.693Z,11.73
2018-04-15T06:06:19.701Z,11.80
2018-04-15T06:07:19.652Z,11.81
2018-04-15T06:08:19.600Z,11.88
2018-04-15T06:09:19.610Z,11.91
2018-04-15T06:10:19.549Z,11.80
2018-04-15T06:11:19.536Z,11.90
2018-04-15T06:12:19.546Z,11.81
2018-04-15T06:13:19.523Z,11.83
2018-04-15T06:14:19.514Z,11.80
2018-04-15T06:15:19.477Z,11.86
2018-04-15T06:16:19.487Z,11.86
2018-04-15T06:17:19.445Z,11.80
2018-04-15T06:18:19.413Z,11.87
2018-04-15T06:19:19.432Z,11.94
2018-04-15T06:20:20.191Z,11.90
2018-04-15T06:21:19.342Z,11.80
2018-04-15T06:22:19.331Z,11.87
2018-04-15T06:23:19.354Z,11.88
2018-04-15T06:24:19.300Z,11.86
2018-04-15T06:25:19.256Z,12.02
2018-04-15T06:26:19.266Z,11.97
2018-04-15T06:27:19.239Z,11.99
2018-04-15T06:28:19.187Z,11.94
2018-04-15T06:29:19.221Z,12.00
2018-04-15T06:30:19.201Z,12.07
2018-04-15T06:31:19.152Z,12.15
2018-04-15T06:32:19.151Z,12.21
2018-04-15T06:33:19.104Z,12.25
2018-04-15T06:34:19.110Z,12.45
2018-04-15T06:35:19.082Z,12.54
2018-04-15T06:36:19.095Z,12.65
2018-04-15T06:37:19.065Z,12.80
2018-04-15T06:38:19.990Z,12.93
2018-04-15T06:39:19.016Z,13.00
2018-04-15T06:40:19.056Z,13.09
2018-04-15T06:41:18.947Z,13.22
2018-04-15T06:42:18.986Z,13.42
2018-04-15T06:43:18.911Z,13.46
2018-04-15T06:44:18.979Z,13.68
2018-04-15T06:45:19.084Z,13.83
2018-04-15T06:46:18.962Z,13.89
2018-04-15T06:47:18.921Z,13.92
2018-04-15T06:48:18.847Z,14.04
2018-04-15T06:49:18.842Z,14.08
2018-04-15T06:50:18.923Z,14.10
2018-04-15T06:51:18.791Z,14.05
2018-04-15T06:52:18.849Z,14.20
2018-04-15T06:53:18.716Z,14.36
2018-04-15T06:54:18.795Z,14.32
2018-04-15T06:55:18.709Z,14.40
2018-04-15T06:56:18.736Z,14.30
2018-04-15T06:57:18.684Z,14.48
2018-04-15T06:58:18.664Z,14.51
2018-04-15T06:59:18.666Z,14.51
2018-04-15T07:00:18.626Z,14.54
2018-04-15T07:01:18.596Z,14.53
2018-04-15T07:02:18.596Z,14.58
2018-04-15T07:03:18.542Z,14.50
2018-04-15T07:04:18.550Z,14.55
2018-04-15T07:05:18.573Z,14.55
2018-04-15T07:06:18.494Z,14.51
2018-04-15T07:07:18.476Z,14.43
2018-04-15T07:08:18.485Z,14.41
2018-04-15T07:09:18.486Z,14.36
2018-04-15T07:10:18.448Z,14.23
2018-04-15T07:11:18.405Z,14.08
2018-04-15T07:12:18.408Z,13.92
2018-04-15T07:13:18.397Z,13.90
2018-04-15T07:14:18.359Z,13.83
2018-04-15T07:15:18.334Z,13.62
2018-04-15T07:16:18.345Z,13.56
2018-04-15T07:17:18.316Z,13.47
2018-04-15T07:18:18.254Z,13.44
2018-04-15T07:19:18.259Z,13.44
2018-04-15T07:20:18.251Z,13.41
2018-04-15T07:21:19.103Z,13.35
2018-04-15T07:22:18.194Z,13.30
2018-04-15T07:23:18.190Z,13.22
2018-04-15T07:24:18.148Z,13.25
2018-04-15T07:25:18.150Z,13.20
2018-04-15T07:26:18.112Z,13.31
2018-04-15T07:27:18.106Z,13.31
2018-04-15T07:28:18.106Z,13.33
2018-04-15T07:29:18.099Z,13.37
2018-04-15T07:30:18.057Z,13.38
2018-04-15T07:31:18.044Z,13.30
2018-04-15T07:32:18.044Z,13.37
2018-04-15T07:33:17.994Z,13.38
2018-04-15T07:34:17.990Z,13.39
2018-04-15T07:35:18.017Z,13.41
2018-04-15T07:36:17.985Z,13.54
2018-04-15T07:37:17.939Z,13.65
2018-04-15T07:38:17.904Z,13.70
2018-04-15T07:39:17.943Z,13.75
2018-04-15T07:40:17.871Z,13.89
2018-04-15T07:41:17.832Z,13.92
2018-04-15T07:42:17.825Z,13.99
2018-04-15T07:43:17.866Z,14.00
2018-04-15T07:44:17.813Z,14.05
2018-04-15T07:45:17.810Z,14.10
2018-04-15T07:46:17.785Z,14.22
2018-04-15T07:47:17.775Z,14.30
2018-04-15T07:48:17.749Z,14.44
2018-04-15T07:49:18.126Z,14.54
2018-04-15T07:50:17.672Z,14.72
2018-04-15T07:51:17.703Z,14.89
2018-04-15T07:52:17.688Z,15.00
2018-04-15T07:53:17.699Z,15.18
2018-04-15T07:54:17.586Z,15.31
2018-04-15T07:55:17.603Z,15.39
2018-04-15T07:56:17.634Z,15.42
2018-04-15T07:57:17.576Z,15.31
2018-04-15T07:58:17.531Z,15.22
2018-04-15T07:59:17.523Z,15.24
2018-04-15T08:00:17.588Z,15.25
2018-04-15T08:01:17.501Z,15.27
2018-04-15T08:02:17.729Z,15.37
2018-04-15T08:03:17.482Z,15.43
2018-04-15T08:04:17.490Z,15.47
2018-04-15T08:05:17.401Z,15.44
2018-04-15T08:06:17.416Z,15.42
2018-04-15T08:07:17.761Z,15.43
2018-04-15T08:08:17.474Z,15.33
2018-04-15T08:09:17.460Z,15.29
2018-04-15T08:10:17.391Z,15.21
2018-04-15T08:11:17.364Z,15.18
2018-04-15T08:12:17.288Z,15.10
2018-04-15T08:13:17.305Z,15.17
2018-04-15T08:14:17.438Z,15.11
2018-04-15T08:15:17.319Z,15.04
2018-04-15T08:16:17.235Z,15.02
2018-04-15T08:17:17.236Z,14.92
2018-04-15T08:18:17.207Z,14.92
2018-04-15T08:19:17.198Z,14.86
2018-04-15T08:20:17.219Z,14.96
2018-04-15T08:21:17.365Z,14.92
2018-04-15T08:22:17.101Z,14.94
2018-04-15T08:23:17.159Z,14.97
2018-04-15T08:24:17.137Z,15.09
2018-04-15T08:25:17.221Z,15.18
2018-04-15T08:26:17.049Z,15.25
2018-04-15T08:27:17.027Z,15.27
2018-04-15T08:28:16.999Z,15.35
2018-04-15T08:29:16.977Z,15.42
2018-04-15T08:30:17.015Z,15.46
2018-04-15T08:31:16.980Z,15.58
2018-04-15T08:32:17.053Z,15.70
2018-04-15T08:33:17.011Z,15.73
2018-04-15T08:34:16.986Z,15.73
2018-04-15T08:35:16.934Z,15.88
2018-04-15T08:36:16.908Z,16.01
2018-04-15T08:37:16.861Z,16.16
2018-04-15T08:38:16.817Z,16.31
2018-04-15T08:39:16.873Z,16.75
2018-04-15T08:40:16.826Z,17.15
2018-04-15T08:41:16.828Z,17.67
2018-04-15T08:42:16.805Z,18.37
2018-04-15T08:43:16.787Z,19.29
2018-04-15T08:44:16.799Z,20.37
2018-04-15T08:45:16.724Z,21.15
2018-04-15T08:46:16.707Z,21.55
2018-04-15T08:47:16.662Z,22.13
2018-04-15T08:48:16.667Z,22.54
2018-04-15T08:49:16.638Z,22.83
2018-04-15T08:50:16.666Z,22.75
2018-04-15T08:51:16.631Z,22.57
2018-04-15T08:52:16.593Z,22.70
2018-04-15T08:53:16.609Z,22.80
2018-04-15T08:54:16.616Z,23.23
2018-04-15T08:55:16.564Z,23.62
2018-04-15T08:56:16.620Z,23.93
2018-04-15T08:57:16.557Z,24.21
2018-04-15T08:58:16.509Z,24.28
2018-04-15T08:59:16.511Z,24.18
2018-04-15T09:00:16.512Z,23.98
2018-04-15T09:01:16.533Z,23.66
2018-04-15T09:02:16.512Z,23.66
2018-04-15T09:03:16.429Z,23.55
2018-04-15T09:04:16.470Z,23.76
2018-04-15T09:05:16.433Z,24.21
2018-04-15T09:06:16.412Z,24.55
2018-04-15T09:07:16.401Z,24.58
2018-04-15T09:08:16.386Z,24.68
2018-04-15T09:09:16.410Z,24.84
2018-04-15T09:10:16.365Z,25.21
2018-04-15T09:11:16.431Z,25.72
2018-04-15T09:12:18.265Z,26.41
2018-04-15T09:13:16.307Z,27.20
2018-04-15T09:14:16.351Z,27.52
2018-04-15T09:15:16.316Z,27.78
2018-04-15T09:16:16.271Z,28.26
2018-04-15T09:17:16.363Z,28.41
2018-04-15T09:18:16.402Z,28.79
2018-04-15T09:19:16.262Z,29.04
2018-04-15T09:20:16.262Z,29.65
2018-04-15T09:21:16.227Z,30.28
2018-04-15T09:22:16.234Z,30.65
2018-04-15T09:23:16.249Z,30.94
2018-04-15T09:24:16.197Z,31.07
2018-04-15T09:25:16.167Z,31.28
2018-04-15T09:26:16.221Z,31.52
2018-04-15T09:27:16.186Z,31.78
2018-04-15T09:28:16.184Z,31.78
2018-04-15T09:29:16.141Z,31.81
2018-04-15T09:30:16.125Z,31.99
2018-04-15T09:31:16.124Z,32.59
2018-04-15T09:32:16.129Z,33.28
2018-04-15T09:33:16.145Z,33.87
2018-04-15T09:34:16.113Z,34.51
2018-04-15T09:35:16.106Z,35.26
2018-04-15T09:36:16.109Z,36.01
2018-04-15T09:37:16.094Z,36.52
2018-04-15T09:38:16.098Z,36.70
2018-04-15T09:39:16.087Z,36.33
2018-04-15T09:40:16.042Z,35.93
2018-04-15T09:41:16.071Z,35.44
2018-04-15T09:42:16.044Z,34.96
2018-04-15T09:43:16.061Z,34.77
2018-04-15T09:44:16.026Z,34.55
2018-04-15T09:45:16.020Z,34.32
2018-04-15T09:46:16.020Z,34.45
2018-04-15T09:47:16.009Z,34.24
2018-04-15T09:48:16.030Z,34.27
2018-04-15T09:49:16.019Z,34.48
2018-04-15T09:50:16.009Z,34.90
2018-04-15T09:51:15.978Z,35.63
2018-04-15T09:52:16.011Z,36.40
2018-04-15T09:53:16.013Z,36.74
2018-04-15T09:54:15.972Z,37.26
2018-04-15T09:55:15.967Z,37.60
2018-04-15T09:56:15.956Z,37.99
2018-04-15T09:57:15.957Z,38.39
2018-04-15T09:58:16.001Z,38.64
2018-04-15T09:59:16.021Z,38.74
2018-04-15T10:00:15.950Z,39.17
2018-04-15T10:01:15.940Z,39.17
2018-04-15T10:02:15.953Z,39.29
2018-04-15T10:03:15.961Z,39.74
2018-04-15T10:04:15.934Z,40.06
2018-04-15T10:05:15.979Z,40.49
2018-04-15T10:06:16.095Z,40.70
2018-04-15T10:07:15.975Z,40.84
2018-04-15T10:08:15.944Z,41.09
2018-04-15T10:09:15.956Z,41.15
2018-04-15T10:10:15.941Z,41.19
2018-04-15T10:11:15.991Z,41.28
2018-04-15T10:12:15.987Z,41.21
2018-04-15T10:13:15.945Z,41.31
2018-04-15T10:14:15.930Z,41.28
2018-04-15T10:15:15.942Z,41.37
2018-04-15T10:16:15.953Z,41.31
2018-04-15T10:17:15.929Z,41.21
2018-04-15T10:18:15.935Z,41.10
2018-04-15T10:19:15.942Z,41.03
2018-04-15T10:20:15.967Z,40.99
2018-04-15T10:21:15.966Z,41.10
2018-04-15T10:22:15.954Z,41.18
2018-04-15T10:23:15.955Z,41.28
2018-04-15T10:24:15.987Z,41.33
2018-04-15T10:25:15.928Z,41.06
2018-04-15T10:26:15.922Z,41.10
2018-04-15T10:27:15.925Z,41.26
2018-04-15T10:28:15.933Z,41.44
2018-04-15T10:29:15.927Z,41.43
2018-04-15T10:30:15.949Z,41.45
2018-04-15T10:31:15.982Z,41.38
2018-04-15T10:32:15.934Z,41.09
2018-04-15T10:33:15.953Z,40.77
2018-04-15T10:34:16.257Z,40.47
2018-04-15T10:35:15.966Z,40.62
2018-04-15T10:36:15.975Z,40.85
2018-04-15T10:37:15.942Z,41.14
2018-04-15T10:38:15.951Z,41.29
2018-04-15T10:39:15.979Z,41.66
2018-04-15T10:40:15.970Z,41.82
2018-04-15T10:41:16.013Z,41.66
2018-04-15T10:42:15.956Z,41.28
2018-04-15T10:43:15.984Z,41.14
2018-04-15T10:44:15.946Z,41.10
2018-04-15T10:45:15.964Z,41.33
2018-04-15T10:46:15.973Z,41.44
2018-04-15T10:47:15.981Z,41.44
2018-04-15T10:48:15.951Z,41.43
2018-04-15T10:49:15.971Z,41.60
2018-04-15T10:50:15.939Z,41.87
2018-04-15T10:51:15.945Z,42.13
2018-04-15T10:52:15.969Z,42.36
2018-04-15T10:53:16.269Z,42.45
2018-04-15T10:54:15.954Z,42.55
2018-04-15T10:55:15.961Z,42.60
2018-04-15T10:56:15.970Z,42.63
2018-04-15T10:57:16.011Z,42.89
2018-04-15T10:58:15.991Z,43.18
2018-04-15T10:59:15.977Z,43.41
2018-04-15T11:00:15.966Z,43.68
2018-04-15T11:01:16.061Z,43.92
2018-04-15T11:02:16.215Z,43.50
2018-04-15T11:03:16.011Z,43.23
2018-04-15T11:04:15.996Z,43.00
2018-04-15T11:05:15.986Z,42.86
2018-04-15T11:06:15.984Z,42.78
2018-04-15T11:07:15.991Z,42.81
2018-04-15T11:08:15.994Z,42.88
2018-04-15T11:09:16.004Z,42.91
2018-04-15T11:10:16.196Z,42.91
2018-04-15T11:11:16.013Z,43.01
2018-04-15T11:12:15.998Z,43.11
2018-04-15T11:13:16.044Z,43.20
2018-04-15T11:14:15.994Z,43.36
2018-04-15T11:15:16.076Z,43.30
2018-04-15T11:16:16.008Z,43.43
2018-04-15T11:17:16.032Z,43.31
2018-04-15T11:18:16.017Z,43.35
2018-04-15T11:19:16.011Z,43.33
2018-04-15T11:20:16.030Z,43.38
2018-04-15T11:21:16.025Z,43.53
2018-04-15T11:22:16.003Z,43.33
2018-04-15T11:23:16.052Z,43.24
2018-04-15T11:24:16.039Z,43.16
2018-04-15T11:25:16.030Z,42.55
2018-04-15T11:26:16.038Z,42.54
2018-04-15T11:27:16.014Z,42.84
2018-04-15T11:28:16.059Z,42.99
2018-04-15T11:29:16.008Z,43.33
2018-04-15T11:30:16.046Z,43.35
2018-04-15T11:31:16.031Z,43.48
2018-04-15T11:32:16.043Z,43.50
2018-04-15T11:33:16.076Z,43.69
2018-04-15T11:34:16.339Z,44.17
2018-04-15T11:35:16.054Z,44.45
2018-04-15T11:36:16.153Z,44.64
2018-04-15T11:37:16.069Z,44.37
2018-04-15T11:38:16.026Z,43.86
2018-04-15T11:39:16.046Z,43.87
2018-04-15T11:40:16.048Z,43.76
2018-04-15T11:41:16.082Z,43.48
2018-04-15T11:42:16.058Z,43.18
2018-04-15T11:43:16.096Z,43.30
2018-04-15T11:44:16.099Z,43.48
2018-04-15T11:45:16.133Z,43.13
2018-04-15T11:46:16.118Z,43.11
2018-04-15T11:47:16.065Z,43.07
2018-04-15T11:48:16.084Z,43.08
2018-04-15T11:49:16.109Z,43.15
2018-04-15T11:50:16.075Z,42.63
2018-04-15T11:51:16.068Z,42.55
2018-04-15T11:52:16.054Z,42.63
2018-04-15T11:53:16.126Z,42.86
2018-04-15T11:54:16.078Z,43.07
2018-04-15T11:55:16.096Z,43.28
2018-04-15T11:56:16.091Z,43.06
2018-04-15T11:57:16.059Z,42.79
2018-04-15T11:58:16.108Z,42.97
2018-04-15T11:59:16.118Z,43.24
2018-04-15T12:00:16.146Z,43.11
2018-04-15T12:01:16.083Z,43.31
2018-04-15T12:02:16.385Z,43.26
2018-04-15T12:03:16.081Z,43.10
2018-04-15T12:04:16.186Z,43.10
2018-04-15T12:05:16.088Z,43.08
2018-04-15T12:06:16.085Z,42.89
2018-04-15T12:07:16.087Z,42.92
2018-04-15T12:08:16.101Z,42.79
2018-04-15T12:09:16.264Z,42.74
2018-04-15T12:10:16.146Z,42.79
2018-04-15T12:11:16.065Z,43.10
2018-04-15T12:12:16.081Z,43.15
2018-04-15T12:13:16.086Z,42.44
2018-04-15T12:14:16.385Z,41.43
2018-04-15T12:15:16.082Z,40.87
2018-04-15T12:16:16.104Z,40.27
2018-04-15T12:17:16.109Z,40.28
2018-04-15T12:18:16.082Z,40.65
2018-04-15T12:19:16.085Z,41.00
2018-04-15T12:20:16.115Z,41.28
2018-04-15T12:21:16.108Z,41.33
2018-04-15T12:22:16.090Z,41.50
2018-04-15T12:23:16.105Z,41.45
2018-04-15T12:24:16.111Z,41.06
2018-04-15T12:25:16.071Z,41.18
2018-04-15T12:26:16.098Z,41.43
2018-04-15T12:27:16.082Z,41.24
2018-04-15T12:28:16.078Z,41.36
2018-04-15T12:29:16.095Z,41.36
2018-04-15T12:30:16.107Z,41.18
2018-04-15T12:31:16.097Z,41.04
2018-04-15T12:32:16.075Z,41.10
2018-04-15T12:33:16.093Z,41.33
2018-04-15T12:34:16.078Z,41.45
2018-04-15T12:35:16.660Z,41.56
2018-04-15T12:36:16.087Z,41.62
2018-04-15T12:37:16.118Z,41.92
2018-04-15T12:38:16.094Z,42.07
2018-04-15T12:39:16.082Z,42.10
2018-04-15T12:40:16.077Z,42.06
2018-04-15T12:41:16.085Z,42.06
2018-04-15T12:42:16.097Z,42.02
2018-04-15T12:43:16.099Z,42.01
2018-04-15T12:44:16.088Z,41.97
2018-04-15T12:45:16.068Z,41.38
2018-04-15T12:46:16.074Z,40.96
2018-04-15T12:47:16.081Z,40.66
2018-04-15T12:48:16.089Z,39.92
2018-04-15T12:49:16.126Z,39.51
2018-04-15T12:50:16.097Z,38.50
2018-04-15T12:51:16.100Z,37.28
2018-04-15T12:52:16.082Z,35.82
2018-04-15T12:53:16.112Z,34.75
2018-04-15T12:54:16.082Z,33.65
2018-04-15T12:55:16.083Z,32.37
2018-04-15T12:56:16.090Z,31.21
2018-04-15T12:57:16.164Z,30.31
2018-04-15T12:58:16.074Z,30.24
2018-04-15T12:59:16.058Z,30.80
2018-04-15T13:00:16.110Z,31.18
2018-04-15T13:01:16.050Z,31.62
2018-04-15T13:02:16.063Z,32.14
2018-04-15T13:03:16.089Z,32.40